aviador You're here:

CYBQ Decoded Metar

in
Report Time2017-09-21 13:54:00
UTC Time2017-09-21 14:04:35
Flight Rules ifr IFR
Wind040° at 16 Gusting to 23 kt
W.Decomp.*RWY 07: 13.9 kt HW 8 kt LCW
W.Rank040° ranks 32
Current wind is above 040° avg. (6.8)
Visibility6437 m
Phenomena:Light Rain
Mist
Clouds:Overcast 008 Hf
Ceiling800 ft
Temp05°C
Dew Point05°C (100% RH)
AAT-1.9°C
QNH999 hPa
Raw Report
SPECI CYBQ 211354Z AUTO 04016G23KT 4SM -RA BR OVC008 05/05 A2950 RMK
SLP005=

Extra information for CYBQ:More info

Social comments